createdAt,value
2023-05-10T00:01:17.233Z,53.80
2023-05-10T00:16:18.727Z,53.80
2023-05-10T00:31:20.213Z,53.80
2023-05-10T00:46:21.763Z,53.80
2023-05-10T01:01:23.309Z,53.80
2023-05-10T01:16:24.928Z,53.80
2023-05-10T01:31:26.441Z,53.70
2023-05-10T01:46:28.007Z,53.70
2023-05-10T02:01:29.487Z,53.70
2023-05-10T02:16:30.986Z,53.60
2023-05-10T02:31:32.488Z,53.70
2023-05-10T02:46:34.067Z,53.60
2023-05-10T03:01:35.692Z,53.60
2023-05-10T03:16:37.171Z,53.60
2023-05-10T03:31:38.669Z,54.50
2023-05-10T03:46:40.168Z,53.40
2023-05-10T04:01:41.677Z,53.40
2023-05-10T04:16:43.193Z,53.40
2023-05-10T04:31:44.687Z,53.40
2023-05-10T04:46:46.205Z,53.40
2023-05-10T05:01:47.726Z,53.40
2023-05-10T05:16:49.226Z,53.30
2023-05-10T05:31:51.044Z,53.30
2023-05-10T05:46:53.374Z,53.30
2023-05-10T06:01:54.880Z,53.20
2023-05-10T06:16:56.599Z,53.20
2023-05-10T06:31:58.213Z,53.10
2023-05-10T06:46:59.751Z,53.00
2023-05-10T07:02:01.261Z,53.10
2023-05-10T07:17:02.768Z,53.10
2023-05-10T07:32:04.283Z,53.10
2023-05-10T07:47:05.854Z,53.10
2023-05-10T08:02:07.405Z,53.10
2023-05-10T08:17:08.920Z,53.10
2023-05-10T08:32:10.412Z,53.10
2023-05-10T08:47:11.921Z,53.40
2023-05-10T09:02:13.452Z,53.70
2023-05-10T09:17:14.978Z,53.70
2023-05-10T09:32:16.456Z,53.70
2023-05-10T09:47:17.924Z,53.40
2023-05-10T10:02:19.396Z,53.50
2023-05-10T10:17:20.929Z,53.50
2023-05-10T10:32:22.441Z,53.20
2023-05-10T10:47:24.026Z,52.80
2023-05-10T11:02:25.655Z,52.50
2023-05-10T11:17:27.175Z,52.10
2023-05-10T11:32:28.700Z,51.50
2023-05-10T11:47:30.264Z,50.80
2023-05-10T12:02:31.824Z,50.10
2023-05-10T12:17:33.345Z,49.60
2023-05-10T12:32:34.837Z,49.50
2023-05-10T12:47:36.299Z,49.30
2023-05-10T13:02:37.777Z,49.10
2023-05-10T13:17:39.255Z,48.80
2023-05-10T13:32:40.750Z,48.70
2023-05-10T13:47:42.220Z,48.60
2023-05-10T14:02:43.742Z,48.30
2023-05-10T14:17:45.305Z,48.20
2023-05-10T14:32:46.728Z,48.20
2023-05-10T14:47:48.191Z,48.20
2023-05-10T15:02:49.757Z,48.50
2023-05-10T15:17:51.838Z,48.70
2023-05-10T15:32:53.316Z,48.80
2023-05-10T15:47:54.776Z,49.00
2023-05-10T16:02:56.425Z,49.10
2023-05-10T16:17:58.305Z,49.10
2023-05-10T16:33:00.046Z,49.20
2023-05-10T16:48:01.605Z,49.30
2023-05-10T17:03:03.238Z,49.40
2023-05-10T17:18:04.808Z,49.70
2023-05-10T17:33:06.372Z,50.10
2023-05-10T17:48:07.997Z,50.30
2023-05-10T18:03:09.625Z,50.40
2023-05-10T18:18:11.189Z,50.30
2023-05-10T18:33:12.770Z,50.90
2023-05-10T18:48:14.284Z,50.70
2023-05-10T19:03:15.749Z,51.00
2023-05-10T19:18:17.242Z,51.20
2023-05-10T19:33:18.739Z,51.30
2023-05-10T19:48:20.192Z,51.40
2023-05-10T20:03:21.690Z,51.40
2023-05-10T20:18:23.270Z,51.50
2023-05-10T20:33:24.832Z,51.60
2023-05-10T20:48:26.288Z,51.70
2023-05-10T21:03:27.754Z,51.80
2023-05-10T21:18:29.271Z,51.80
2023-05-10T21:33:30.854Z,51.80
2023-05-10T21:48:32.329Z,51.80
2023-05-10T22:03:33.854Z,51.90
2023-05-10T22:18:36.446Z,52.00
2023-05-10T22:33:37.927Z,52.20
2023-05-10T22:48:39.412Z,52.20
2023-05-10T23:03:40.870Z,52.40
2023-05-10T23:18:42.394Z,52.40
2023-05-10T23:33:43.871Z,52.40
2023-05-10T23:48:45.342Z,52.40
